createdAt,value
2023-02-28T00:01:37.655Z,3.00
2023-02-28T00:04:06.498Z,3.10
2023-02-28T00:06:34.950Z,3.10
2023-02-28T00:09:04.880Z,3.10
2023-02-28T00:11:33.530Z,3.10
2023-02-28T00:14:01.904Z,3.10
2023-02-28T00:16:30.407Z,3.10
2023-02-28T00:18:58.711Z,3.10
2023-02-28T00:21:27.723Z,3.10
2023-02-28T00:23:56.158Z,3.10
2023-02-28T00:26:25.843Z,3.10
2023-02-28T00:28:54.781Z,3.10
2023-02-28T00:31:24.783Z,3.10
2023-02-28T00:33:53.104Z,3.10
2023-02-28T00:36:22.845Z,3.20
2023-02-28T00:38:51.564Z,3.10
2023-02-28T00:41:20.063Z,3.10
2023-02-28T00:43:50.895Z,3.10
2023-02-28T00:46:19.547Z,3.20
2023-02-28T00:48:48.011Z,3.10
2023-02-28T00:51:16.707Z,3.10
2023-02-28T00:53:45.120Z,3.20
2023-02-28T00:56:13.481Z,3.20
2023-02-28T00:58:42.116Z,3.20
2023-02-28T01:01:12.088Z,3.10
2023-02-28T01:03:40.708Z,3.20
2023-02-28T01:06:09.514Z,3.20
2023-02-28T01:08:37.944Z,3.20
2023-02-28T01:11:12.104Z,3.20
2023-02-28T01:13:42.368Z,3.20
2023-02-28T01:16:12.139Z,3.20
2023-02-28T01:18:41.149Z,3.20
2023-02-28T01:21:13.253Z,3.20
2023-02-28T01:23:42.620Z,3.30
2023-02-28T01:26:15.349Z,3.30
2023-02-28T01:28:44.358Z,3.30
2023-02-28T01:31:14.845Z,3.20
2023-02-28T01:33:43.427Z,3.30
2023-02-28T01:36:14.445Z,3.30
2023-02-28T01:38:43.149Z,3.20
2023-02-28T01:41:20.024Z,3.20
2023-02-28T01:44:00.169Z,3.20
2023-02-28T01:46:29.801Z,3.20
2023-02-28T01:49:05.589Z,3.20
2023-02-28T01:51:40.563Z,3.20
2023-02-28T01:54:15.480Z,3.20
2023-02-28T01:56:49.816Z,3.30
2023-02-28T01:59:26.339Z,3.30
2023-02-28T02:01:56.615Z,3.30
2023-02-28T02:04:29.261Z,3.20
2023-02-28T02:06:57.739Z,3.30
2023-02-28T02:09:26.150Z,3.30
2023-02-28T02:11:58.101Z,3.30
2023-02-28T02:15:00.078Z,3.30
2023-02-28T02:17:36.784Z,3.30
2023-02-28T02:21:14.803Z,3.30
2023-02-28T02:24:39.155Z,3.30
2023-02-28T02:27:24.674Z,3.10
2023-02-28T02:30:39.338Z,3.30
2023-02-28T02:33:31.159Z,3.30
2023-02-28T02:36:09.405Z,3.30
2023-02-28T02:38:47.184Z,3.30
2023-02-28T02:41:26.797Z,3.30
2023-02-28T02:44:03.368Z,3.30
2023-02-28T02:46:36.384Z,3.30
2023-02-28T02:49:08.787Z,3.30
2023-02-28T02:51:40.606Z,3.30
2023-02-28T02:54:16.827Z,3.90
2023-02-28T02:56:49.355Z,3.30
2023-02-28T02:59:22.225Z,3.30
2023-02-28T03:01:54.598Z,3.30
2023-02-28T03:04:26.370Z,3.30
2023-02-28T03:06:56.359Z,3.30
2023-02-28T03:09:25.141Z,3.30
2023-02-28T03:11:56.998Z,3.30
2023-02-28T03:14:44.737Z,3.30
2023-02-28T03:17:38.280Z,3.30
2023-02-28T03:20:20.432Z,3.30
2023-02-28T03:23:01.924Z,3.30
2023-02-28T03:25:37.781Z,3.30
2023-02-28T03:28:16.023Z,3.30
2023-02-28T03:30:54.854Z,3.20
2023-02-28T03:33:28.171Z,3.20
2023-02-28T03:36:00.528Z,3.20
2023-02-28T03:38:37.100Z,3.20
2023-02-28T03:41:13.262Z,3.20
2023-02-28T03:43:45.826Z,3.20
2023-02-28T03:46:22.170Z,3.20
2023-02-28T03:48:57.046Z,3.20
2023-02-28T03:51:29.358Z,3.20
2023-02-28T03:54:04.969Z,3.20
2023-02-28T03:56:40.717Z,3.20
2023-02-28T03:59:15.924Z,3.20
2023-02-28T04:01:46.636Z,3.60
2023-02-28T04:04:16.653Z,3.70
2023-02-28T04:06:46.552Z,3.20
2023-02-28T04:09:17.039Z,3.20
2023-02-28T04:11:48.217Z,3.20
2023-02-28T04:14:16.549Z,3.20
2023-02-28T04:16:45.279Z,3.20
2023-02-28T04:19:15.698Z,3.20
2023-02-28T04:21:47.036Z,3.20
2023-02-28T04:24:19.104Z,3.20
2023-02-28T04:26:49.596Z,3.20
2023-02-28T04:29:22.878Z,3.20
2023-02-28T04:31:51.694Z,3.20
2023-02-28T04:34:20.957Z,3.30
2023-02-28T04:37:02.725Z,3.10
2023-02-28T04:39:41.970Z,2.70
2023-02-28T04:42:10.483Z,3.00
2023-02-28T04:44:38.815Z,3.00
2023-02-28T04:47:07.232Z,2.90
2023-02-28T04:49:35.845Z,2.90
2023-02-28T04:52:04.476Z,2.90
2023-02-28T04:54:32.920Z,2.80
2023-02-28T04:57:02.546Z,2.80
2023-02-28T04:59:30.836Z,2.80
2023-02-28T05:01:59.249Z,2.70
2023-02-28T05:04:27.790Z,2.70
2023-02-28T05:06:56.389Z,2.70
2023-02-28T05:09:24.817Z,2.70
2023-02-28T05:11:53.088Z,2.70
2023-02-28T05:14:23.179Z,2.60
2023-02-28T05:16:51.549Z,2.90
2023-02-28T05:19:20.095Z,2.50
2023-02-28T05:21:53.965Z,2.50
2023-02-28T05:24:23.807Z,2.40
2023-02-28T05:26:54.755Z,2.40
2023-02-28T05:29:24.943Z,2.30
2023-02-28T05:31:53.526Z,2.30
2023-02-28T05:34:21.910Z,2.30
2023-02-28T05:36:50.534Z,2.20
2023-02-28T05:39:18.832Z,2.20
2023-02-28T05:41:47.188Z,2.20
2023-02-28T05:44:15.573Z,2.20
2023-02-28T05:46:45.225Z,2.10
2023-02-28T05:49:13.608Z,2.10
2023-02-28T05:51:41.975Z,2.10
2023-02-28T05:54:11.553Z,2.00
2023-02-28T05:56:41.730Z,2.00
2023-02-28T05:59:10.268Z,2.00
2023-02-28T06:01:48.967Z,2.00
2023-02-28T06:04:31.220Z,2.00
2023-02-28T06:07:00.944Z,1.90
2023-02-28T06:09:30.121Z,1.90
2023-02-28T06:12:00.425Z,1.90
2023-02-28T06:14:29.029Z,1.80
2023-02-28T06:16:59.330Z,1.80
2023-02-28T06:19:27.793Z,1.80
2023-02-28T06:21:57.929Z,1.80
2023-02-28T06:24:29.078Z,1.70
2023-02-28T06:26:58.613Z,1.70
2023-02-28T06:29:27.648Z,1.60
2023-02-28T06:31:56.388Z,1.60
2023-02-28T06:34:26.172Z,1.60
2023-02-28T06:36:54.726Z,1.60
2023-02-28T06:39:23.131Z,1.60
2023-02-28T06:41:55.677Z,1.50
2023-02-28T06:44:25.596Z,1.50
2023-02-28T06:46:53.907Z,1.50
2023-02-28T06:49:22.281Z,1.50
2023-02-28T06:51:52.024Z,1.50
2023-02-28T06:54:20.348Z,1.40
2023-02-28T06:56:48.864Z,1.50
2023-02-28T06:59:17.392Z,1.40
2023-02-28T07:01:46.120Z,1.40
2023-02-28T07:04:15.175Z,1.40
2023-02-28T07:06:43.584Z,1.40
2023-02-28T07:09:14.890Z,1.40
2023-02-28T07:11:44.006Z,1.40
2023-02-28T07:14:12.443Z,1.40
2023-02-28T07:16:40.756Z,1.40
2023-02-28T07:19:09.093Z,1.40
2023-02-28T07:21:37.461Z,1.40
2023-02-28T07:24:06.528Z,1.40
2023-02-28T07:26:36.216Z,1.40
2023-02-28T07:29:05.485Z,1.40
2023-02-28T07:31:33.838Z,1.30
2023-02-28T07:34:02.192Z,1.30
2023-02-28T07:36:30.749Z,1.30
2023-02-28T07:39:00.917Z,1.30
2023-02-28T07:41:31.150Z,1.30
2023-02-28T07:44:01.540Z,1.20
2023-02-28T07:46:36.557Z,1.20
2023-02-28T07:49:05.650Z,1.20
2023-02-28T07:51:34.231Z,1.20
2023-02-28T07:54:02.610Z,1.10
2023-02-28T07:56:31.209Z,1.10
2023-02-28T07:59:02.570Z,1.10
2023-02-28T08:01:31.355Z,1.10
2023-02-28T08:03:59.895Z,1.10
2023-02-28T08:06:28.236Z,1.10
2023-02-28T08:08:57.206Z,1.10
2023-02-28T08:11:25.645Z,1.10
2023-02-28T08:13:53.883Z,1.10
2023-02-28T08:16:24.109Z,1.10
2023-02-28T08:18:54.001Z,1.10
2023-02-28T08:21:23.374Z,1.10
2023-02-28T08:23:53.251Z,1.10
2023-02-28T08:26:22.487Z,1.10
2023-02-28T08:28:51.542Z,1.10
2023-02-28T08:31:20.869Z,1.20
2023-02-28T08:33:52.116Z,1.20
2023-02-28T08:36:21.247Z,1.20
2023-02-28T08:38:49.539Z,1.20
2023-02-28T08:41:17.828Z,1.20
2023-02-28T08:43:46.162Z,1.30
2023-02-28T08:46:15.813Z,1.30
2023-02-28T08:48:44.848Z,1.30
2023-02-28T08:51:34.639Z,1.30
2023-02-28T08:54:03.338Z,1.30
2023-02-28T08:56:31.810Z,1.40
2023-02-28T08:59:00.239Z,1.40
2023-02-28T09:01:30.967Z,1.50
2023-02-28T09:04:00.310Z,1.50
2023-02-28T09:06:29.757Z,1.60
2023-02-28T09:09:02.132Z,1.60
2023-02-28T09:11:32.716Z,1.70
2023-02-28T09:14:01.386Z,1.80
2023-02-28T09:16:29.763Z,1.80
2023-02-28T09:18:58.123Z,1.90
2023-02-28T09:21:26.414Z,2.00
2023-02-28T09:23:54.919Z,2.10
2023-02-28T09:26:32.572Z,2.10
2023-02-28T09:29:07.686Z,2.20
2023-02-28T09:31:36.037Z,2.30
2023-02-28T09:34:05.669Z,2.40
2023-02-28T09:36:43.842Z,2.40
2023-02-28T09:39:13.478Z,2.50
2023-02-28T09:41:51.755Z,2.60
2023-02-28T09:44:30.114Z,2.60
2023-02-28T09:47:02.492Z,2.70
2023-02-28T09:49:40.236Z,2.80
2023-02-28T09:52:14.474Z,2.80
2023-02-28T09:54:43.273Z,2.90
2023-02-28T09:57:33.835Z,2.90
2023-02-28T10:00:13.598Z,3.00
2023-02-28T10:03:14.700Z,3.10
2023-02-28T10:05:53.130Z,3.20
2023-02-28T10:08:27.746Z,3.30
2023-02-28T10:10:59.913Z,3.40
2023-02-28T10:13:36.722Z,3.50
2023-02-28T10:16:10.768Z,3.60
2023-02-28T10:18:48.347Z,3.70
2023-02-28T10:21:23.960Z,3.90
2023-02-28T10:24:04.515Z,4.10
2023-02-28T10:26:34.644Z,4.20
2023-02-28T10:29:05.131Z,4.50
2023-02-28T10:31:33.581Z,4.50
2023-02-28T10:34:02.479Z,4.60
2023-02-28T10:36:31.167Z,4.80
2023-02-28T10:39:00.870Z,5.00
2023-02-28T10:41:35.853Z,5.10
2023-02-28T10:44:22.040Z,5.30
2023-02-28T10:46:51.482Z,5.40
2023-02-28T10:49:24.006Z,5.60
2023-02-28T10:51:57.887Z,5.70
2023-02-28T10:54:32.506Z,5.90
2023-02-28T10:57:19.229Z,6.10
2023-02-28T10:59:53.992Z,6.20
2023-02-28T11:02:35.950Z,6.50
2023-02-28T11:05:25.791Z,6.60
2023-02-28T11:07:55.758Z,6.70
2023-02-28T11:10:29.282Z,7.10
2023-02-28T11:13:00.990Z,7.00
2023-02-28T11:15:34.196Z,7.10
2023-02-28T11:18:04.764Z,7.30
2023-02-28T11:20:35.878Z,7.40
2023-02-28T11:23:08.156Z,7.50
2023-02-28T11:25:40.316Z,7.70
2023-02-28T11:28:27.352Z,7.90
2023-02-28T11:31:20.625Z,7.80
2023-02-28T11:33:51.898Z,8.00
2023-02-28T11:36:25.594Z,8.10
2023-02-28T11:38:55.528Z,8.20
2023-02-28T11:42:03.100Z,8.40
2023-02-28T11:44:52.427Z,8.50
2023-02-28T11:47:35.066Z,8.80
2023-02-28T11:50:23.594Z,8.90
2023-02-28T11:52:56.315Z,8.90
2023-02-28T11:55:30.116Z,8.90
2023-02-28T11:58:32.491Z,9.00
2023-02-28T12:01:15.048Z,9.10
2023-02-28T12:04:01.856Z,9.20
2023-02-28T12:06:38.987Z,9.30
2023-02-28T12:09:42.471Z,9.30
2023-02-28T12:12:25.604Z,9.40
2023-02-28T12:15:20.594Z,9.40
2023-02-28T12:18:06.780Z,9.40
2023-02-28T12:20:46.056Z,9.50
2023-02-28T12:23:43.908Z,9.50
2023-02-28T12:26:22.256Z,9.50
2023-02-28T12:28:55.735Z,9.50
2023-02-28T12:31:27.104Z,9.50
2023-02-28T12:34:02.112Z,9.60
2023-02-28T12:36:32.321Z,9.50
2023-02-28T12:39:05.425Z,9.50
2023-02-28T12:41:42.598Z,9.50
2023-02-28T12:44:16.740Z,9.40
2023-02-28T12:46:50.604Z,9.40
2023-02-28T12:49:21.695Z,9.30
2023-02-28T12:51:52.197Z,9.30
2023-02-28T12:54:27.431Z,9.30
2023-02-28T12:57:07.730Z,9.30
2023-02-28T12:59:43.850Z,9.20
2023-02-28T13:02:34.657Z,9.30
2023-02-28T13:05:31.639Z,9.20
2023-02-28T13:08:50.034Z,9.10
2023-02-28T13:11:31.388Z,9.10
2023-02-28T13:14:02.136Z,9.10
2023-02-28T13:16:32.650Z,9.00
2023-02-28T13:19:13.448Z,8.90
2023-02-28T13:21:46.719Z,8.80
2023-02-28T13:24:44.201Z,8.80
2023-02-28T13:27:41.619Z,8.70
2023-02-28T13:31:04.856Z,8.70
2023-02-28T13:33:34.250Z,8.60
2023-02-28T13:36:30.371Z,8.60
2023-02-28T13:39:02.999Z,8.60
2023-02-28T13:41:49.585Z,8.60
2023-02-28T13:44:21.000Z,8.60
2023-02-28T13:47:30.571Z,8.50
2023-02-28T13:50:25.931Z,8.40
2023-02-28T13:53:28.619Z,8.40
2023-02-28T13:56:05.647Z,8.40
2023-02-28T13:58:49.000Z,8.40
2023-02-28T14:01:44.732Z,8.30
2023-02-28T14:04:47.998Z,8.30
2023-02-28T14:07:24.090Z,8.20
2023-02-28T14:10:06.359Z,8.20
2023-02-28T14:13:17.105Z,8.20
2023-02-28T14:16:08.350Z,8.10
2023-02-28T14:18:38.868Z,8.10
2023-02-28T14:21:18.877Z,8.10
2023-02-28T14:24:27.155Z,8.00
2023-02-28T14:27:31.080Z,8.00
2023-02-28T14:30:45.522Z,7.90
2023-02-28T14:33:29.057Z,7.90
2023-02-28T14:36:15.860Z,7.90
2023-02-28T14:38:49.260Z,7.80
2023-02-28T14:41:25.742Z,7.80
2023-02-28T14:43:58.532Z,7.80
2023-02-28T14:46:32.942Z,7.80
2023-02-28T14:49:03.378Z,7.80
2023-02-28T14:51:31.756Z,7.80
2023-02-28T14:54:03.232Z,7.80
2023-02-28T14:56:38.006Z,7.80
2023-02-28T14:59:08.031Z,7.80
2023-02-28T15:01:37.730Z,7.80
2023-02-28T15:04:08.872Z,7.70
2023-02-28T15:06:37.284Z,7.70
2023-02-28T15:09:17.171Z,7.70
2023-02-28T15:11:50.843Z,7.70
2023-02-28T15:14:24.316Z,7.90
2023-02-28T15:16:58.621Z,7.70
2023-02-28T15:19:31.804Z,7.70
2023-02-28T15:22:08.137Z,7.70
2023-02-28T15:24:42.361Z,7.70
2023-02-28T15:27:17.175Z,7.70
2023-02-28T15:29:51.859Z,7.70
2023-02-28T15:32:29.711Z,7.70
2023-02-28T15:35:00.944Z,7.60
2023-02-28T15:37:36.111Z,7.60
2023-02-28T15:40:15.482Z,7.70
2023-02-28T15:42:45.643Z,7.60
2023-02-28T15:45:36.125Z,7.70
2023-02-28T15:48:13.634Z,7.60
2023-02-28T15:50:44.142Z,7.60
2023-02-28T15:53:19.484Z,7.60
2023-02-28T15:55:54.582Z,7.50
2023-02-28T15:58:25.100Z,7.50
2023-02-28T16:01:08.979Z,7.50
2023-02-28T16:03:43.592Z,7.40
2023-02-28T16:06:35.294Z,7.40
2023-02-28T16:09:05.831Z,7.30
2023-02-28T16:11:36.236Z,7.30
2023-02-28T16:14:05.061Z,7.40
2023-02-28T16:16:34.482Z,7.90
2023-02-28T16:19:02.820Z,7.20
2023-02-28T16:21:33.041Z,7.40
2023-02-28T16:24:01.361Z,7.10
2023-02-28T16:26:29.799Z,7.10
2023-02-28T16:28:58.254Z,7.00
2023-02-28T16:31:26.906Z,7.10
2023-02-28T16:33:56.415Z,6.90
2023-02-28T16:36:26.892Z,6.90
2023-02-28T16:38:57.362Z,7.10
2023-02-28T16:41:29.214Z,6.80
2023-02-28T16:44:01.415Z,7.00
2023-02-28T16:46:36.595Z,6.70
2023-02-28T16:49:05.318Z,6.90
2023-02-28T16:51:35.738Z,6.60
2023-02-28T16:54:05.934Z,6.50
2023-02-28T16:56:36.234Z,6.50
2023-02-28T16:59:05.452Z,6.40
2023-02-28T17:01:34.418Z,6.40
2023-02-28T17:04:03.085Z,6.80
2023-02-28T17:06:32.980Z,6.30
2023-02-28T17:09:01.598Z,6.20
2023-02-28T17:11:31.626Z,6.20
2023-02-28T17:14:00.248Z,6.10
2023-02-28T17:16:33.054Z,6.00
2023-02-28T17:19:04.989Z,6.00
2023-02-28T17:21:34.123Z,5.90
2023-02-28T17:24:02.739Z,6.20
2023-02-28T17:26:33.124Z,5.80
2023-02-28T17:29:01.606Z,5.80
2023-02-28T17:31:33.056Z,5.70
2023-02-28T17:34:01.686Z,5.70
2023-02-28T17:36:31.032Z,5.80
2023-02-28T17:38:59.676Z,5.60
2023-02-28T17:41:30.768Z,5.50
2023-02-28T17:44:00.563Z,5.60
2023-02-28T17:46:29.963Z,5.50
2023-02-28T17:48:58.601Z,5.40
2023-02-28T17:51:27.098Z,5.50
2023-02-28T17:53:55.553Z,5.30
2023-02-28T17:56:26.685Z,5.30
2023-02-28T17:58:57.345Z,5.30
2023-02-28T18:01:27.938Z,5.20
2023-02-28T18:03:57.037Z,5.40
2023-02-28T18:06:28.588Z,5.50
2023-02-28T18:08:57.143Z,5.20
2023-02-28T18:11:27.158Z,5.10
2023-02-28T18:13:56.861Z,5.10
2023-02-28T18:16:27.456Z,5.10
2023-02-28T18:18:55.918Z,5.10
2023-02-28T18:21:24.223Z,5.00
2023-02-28T18:23:53.248Z,5.00
2023-02-28T18:26:22.205Z,5.00
2023-02-28T18:28:50.546Z,5.00
2023-02-28T18:31:21.964Z,5.00
2023-02-28T18:33:53.694Z,5.30
2023-02-28T18:36:22.742Z,5.20
2023-02-28T18:38:52.056Z,5.60
2023-02-28T18:41:22.566Z,4.90
2023-02-28T18:43:53.119Z,5.10
2023-02-28T18:46:22.794Z,4.90
2023-02-28T18:48:52.571Z,4.80
2023-02-28T18:51:24.233Z,4.80
2023-02-28T18:53:53.329Z,5.10
2023-02-28T18:56:25.102Z,4.80
2023-02-28T18:58:54.379Z,5.10
2023-02-28T19:01:26.926Z,4.70
2023-02-28T19:03:57.330Z,4.70
2023-02-28T19:06:25.694Z,4.70
2023-02-28T19:08:56.068Z,4.70
2023-02-28T19:11:25.376Z,4.90
2023-02-28T19:13:54.052Z,4.70
2023-02-28T19:16:23.705Z,4.60
2023-02-28T19:18:52.482Z,4.60
2023-02-28T19:21:26.063Z,4.60
2023-02-28T19:23:54.798Z,4.60
2023-02-28T19:26:25.501Z,4.60
2023-02-28T19:28:54.145Z,4.50
2023-02-28T19:31:25.917Z,4.50
2023-02-28T19:33:56.255Z,4.50
2023-02-28T19:36:27.613Z,4.60
2023-02-28T19:38:56.012Z,4.40
2023-02-28T19:41:24.382Z,4.40
2023-02-28T19:43:55.284Z,4.40
2023-02-28T19:46:23.689Z,4.30
2023-02-28T19:48:55.340Z,4.30
2023-02-28T19:51:24.213Z,4.30
2023-02-28T19:53:54.079Z,4.30
2023-02-28T19:56:22.452Z,4.30
2023-02-28T19:58:50.871Z,4.20
2023-02-28T20:01:20.874Z,4.20
2023-02-28T20:03:51.948Z,4.20
2023-02-28T20:06:20.683Z,4.40
2023-02-28T20:08:49.035Z,4.30
2023-02-28T20:11:18.906Z,4.20
2023-02-28T20:13:47.652Z,4.20
2023-02-28T20:16:17.167Z,4.20
2023-02-28T20:18:46.233Z,4.20
2023-02-28T20:21:16.600Z,4.20
2023-02-28T20:23:48.633Z,4.20
2023-02-28T20:26:20.213Z,4.20
2023-02-28T20:28:49.195Z,4.20
2023-02-28T20:31:20.893Z,4.20
2023-02-28T20:33:49.842Z,4.20
2023-02-28T20:36:20.293Z,4.20
2023-02-28T20:38:52.851Z,4.20
2023-02-28T20:41:23.112Z,4.10
2023-02-28T20:43:55.745Z,4.60
2023-02-28T20:46:24.417Z,4.10
2023-02-28T20:48:53.004Z,4.20
2023-02-28T20:51:22.472Z,5.20
2023-02-28T20:53:51.439Z,5.30
2023-02-28T20:56:23.836Z,4.40
2023-02-28T20:58:57.627Z,4.10
2023-02-28T21:01:28.558Z,4.20
2023-02-28T21:03:59.868Z,4.00
2023-02-28T21:06:31.531Z,4.00
2023-02-28T21:09:00.750Z,4.00
2023-02-28T21:11:33.920Z,3.90
2023-02-28T21:14:05.320Z,3.90
2023-02-28T21:16:37.464Z,4.80
2023-02-28T21:19:07.269Z,3.90
2023-02-28T21:21:39.186Z,3.90
2023-02-28T21:24:15.937Z,3.90
2023-02-28T21:26:48.186Z,3.80
2023-02-28T21:29:17.422Z,3.80
2023-02-28T21:31:52.086Z,3.80
2023-02-28T21:34:21.032Z,3.70
2023-02-28T21:36:49.667Z,3.80
2023-02-28T21:39:23.305Z,3.70
2023-02-28T21:41:54.225Z,4.20
2023-02-28T21:44:23.289Z,4.70
2023-02-28T21:46:55.041Z,3.70
2023-02-28T21:49:24.930Z,3.70
2023-02-28T21:51:53.609Z,5.00
2023-02-28T21:54:22.287Z,4.10
2023-02-28T21:56:52.800Z,3.40
2023-02-28T21:59:22.042Z,4.30
2023-02-28T22:01:52.043Z,4.60
2023-02-28T22:04:22.826Z,3.50
2023-02-28T22:06:54.400Z,3.70
2023-02-28T22:09:24.365Z,3.40
2023-02-28T22:11:55.730Z,4.20
2023-02-28T22:14:25.870Z,4.20
2023-02-28T22:16:57.299Z,3.30
2023-02-28T22:19:29.270Z,3.10
2023-02-28T22:22:00.831Z,3.50
2023-02-28T22:24:30.584Z,3.50
2023-02-28T22:27:01.958Z,3.10
2023-02-28T22:29:31.779Z,3.30
2023-02-28T22:32:01.803Z,3.70
2023-02-28T22:34:31.277Z,3.30
2023-02-28T22:37:00.858Z,3.30
2023-02-28T22:39:30.471Z,3.30
2023-02-28T22:42:01.971Z,3.00
2023-02-28T22:44:31.225Z,3.30
2023-02-28T22:47:01.903Z,4.40
2023-02-28T22:49:31.265Z,3.20
2023-02-28T22:52:01.060Z,3.10
2023-02-28T22:54:30.583Z,3.10
2023-02-28T22:57:00.721Z,3.80
2023-02-28T22:59:30.351Z,3.00
2023-02-28T23:01:59.709Z,3.30
2023-02-28T23:04:29.691Z,2.90
2023-02-28T23:06:59.367Z,2.90
2023-02-28T23:13:30.697Z,2.80
2023-02-28T23:26:00.126Z,2.60
2023-02-28T23:28:31.812Z,2.00
